Time;durP1;ratioP1;P1;durP2;ratioP2;P2;SDS_P1;SDS_P2;PMS_P1;PMS_P2;Temp;Humidity;BMP_temperature;BMP_pressure;BME280_temperature;BME280_humidity;BME280_pressure;Samples;Min_cycle;Max_cycle;Signal;HPM_P1;HPM_P2
2022/09/05 00:00:25;;;;;;;;;;;17.60;99.90;;;;;;5054641;28;19929;-80
2022/09/05 00:03:05;;;;;;;;;;;17.60;99.90;;;;;;5055079;28;19931;-80
2022/09/05 00:05:36;;;;;;;;;;;17.50;99.90;;;;;;5053423;28;19928;-80
2022/09/05 00:08:07;;;;;;;;;;;17.50;99.90;;;;;;5051615;28;19951;-80
2022/09/05 00:10:38;;;;;;;;;;;17.50;99.90;;;;;;5054111;28;20295;-80
2022/09/05 00:13:10;;;;;;;;;;;17.50;99.90;;;;;;5051703;28;19959;-82
2022/09/05 00:15:42;;;;;;;;;;;17.40;99.90;;;;;;5053592;28;20006;-80
2022/09/05 00:18:16;;;;;;;;;;;17.40;99.90;;;;;;5054057;28;20825;-80
2022/09/05 00:20:48;;;;;;;;;;;17.40;99.90;;;;;;5052923;28;19933;-80
2022/09/05 00:23:19;;;;;;;;;;;17.30;99.90;;;;;;5052547;28;19928;-80
2022/09/05 00:25:56;;;;;;;;;;;17.30;99.90;;;;;;5052319;28;20355;-80
2022/09/05 00:28:29;;;;;;;;;;;17.30;99.90;;;;;;5052927;28;19947;-80
2022/09/05 00:31:04;;;;;;;;;;;17.30;99.90;;;;;;5053575;28;19959;-81
2022/09/05 00:33:32;;;;;;;;;;;17.30;99.90;;;;;;5054139;28;20373;-81
2022/09/05 00:36:06;;;;;;;;;;;17.30;99.90;;;;;;5053913;28;19924;-81
2022/09/05 00:38:34;;;;;;;;;;;17.20;99.90;;;;;;5053648;28;19925;-81
2022/09/05 00:41:03;;;;;;;;;;;17.20;99.90;;;;;;5054406;28;19932;-81
2022/09/05 00:43:33;;;;;;;;;;;17.20;99.90;;;;;;5054424;28;19936;-80
2022/09/05 00:46:02;;;;;;;;;;;17.20;99.90;;;;;;5054074;28;19932;-81
2022/09/05 00:48:35;;;;;;;;;;;17.10;99.90;;;;;;5053377;28;20008;-80
2022/09/05 00:51:08;;;;;;;;;;;17.10;99.90;;;;;;5053846;28;20074;-81
2022/09/05 00:53:38;;;;;;;;;;;17.10;99.90;;;;;;5052153;28;19992;-82
2022/09/05 00:56:13;;;;;;;;;;;17.10;99.90;;;;;;5052854;28;19933;-80
2022/09/05 00:58:51;;;;;;;;;;;17.00;99.90;;;;;;5053311;28;20486;-80
2022/09/05 01:01:36;;;;;;;;;;;17.00;99.90;;;;;;5053516;28;20436;-80
2022/09/05 01:04:11;;;;;;;;;;;17.00;99.90;;;;;;5052199;28;20261;-80
2022/09/05 01:06:48;;;;;;;;;;;16.90;99.90;;;;;;5052969;28;19924;-80
2022/09/05 01:09:24;;;;;;;;;;;16.90;99.90;;;;;;5052828;28;19948;-80
2022/09/05 01:12:06;;;;;;;;;;;16.90;99.90;;;;;;5052315;28;19925;-80
2022/09/05 01:14:46;;;;;;;;;;;16.90;99.90;;;;;;5053330;28;19928;-80
2022/09/05 01:17:23;;;;;;;;;;;16.80;99.90;;;;;;5051469;28;19929;-80
2022/09/05 01:20:01;;;;;;;;;;;16.80;99.90;;;;;;5051903;28;19975;-80
2022/09/05 01:22:39;;;;;;;;;;;16.80;99.90;;;;;;5052221;28;19925;-80
2022/09/05 01:25:12;;;;;;;;;;;16.70;99.90;;;;;;5051434;28;19924;-80
2022/09/05 01:27:54;;;;;;;;;;;16.70;99.90;;;;;;5050047;28;19925;-80
2022/09/05 01:30:23;;;;;;;;;;;16.70;99.90;;;;;;5050258;28;19982;-79
2022/09/05 01:32:54;;;;;;;;;;;16.70;99.90;;;;;;5050729;28;19928;-81
2022/09/05 01:35:38;;;;;;;;;;;16.90;99.90;;;;;;5050666;28;19994;-80
2022/09/05 01:38:09;;;;;;;;;;;16.60;99.90;;;;;;5001323;28;19928;-79
2022/09/05 01:40:42;;;;;;;;;;;16.60;99.90;;;;;;5050103;28;20485;-80
2022/09/05 01:43:17;;;;;;;;;;;16.50;99.90;;;;;;5051135;28;19932;-80
2022/09/05 01:45:49;;;;;;;;;;;16.50;99.90;;;;;;5051780;28;19929;-80
2022/09/05 01:48:23;;;;;;;;;;;16.50;99.90;;;;;;5054308;28;19936;-78
2022/09/05 01:50:54;;;;;;;;;;;16.50;99.90;;;;;;5056839;28;20226;-78
2022/09/05 01:53:26;;;;;;;;;;;16.50;99.90;;;;;;5060356;28;20581;-76
2022/09/05 01:56:08;;;;;;;;;;;16.50;99.90;;;;;;5061426;28;19989;-78
2022/09/05 01:58:44;;;;;;;;;;;16.40;99.90;;;;;;5064291;28;20002;-76
2022/09/05 02:01:14;;;;;;;;;;;16.40;99.90;;;;;;5068677;28;20335;-79
2022/09/05 02:03:44;;;;;;;;;;;16.40;99.90;;;;;;5077222;28;19963;-79
2022/09/05 02:06:34;;;;;;;;;;;16.40;99.90;;;;;;5077181;28;19924;-79
2022/09/05 02:09:08;;;;;;;;;;;16.40;99.90;;;;;;5069426;28;19929;-79
2022/09/05 02:11:40;;;;;;;;;;;16.40;99.90;;;;;;5073251;28;19934;-79
2022/09/05 02:14:18;;;;;;;;;;;16.40;99.90;;;;;;5067870;28;19946;-77
2022/09/05 02:16:45;;;;;;;;;;;16.40;99.90;;;;;;5078195;28;19925;-78
2022/09/05 02:19:16;;;;;;;;;;;16.30;99.90;;;;;;5079963;28;20300;-78
2022/09/05 02:21:48;;;;;;;;;;;16.30;99.90;;;;;;5080034;28;19970;-78
2022/09/05 02:24:18;;;;;;;;;;;16.30;99.90;;;;;;5070796;28;19925;-79
2022/09/05 02:26:53;;;;;;;;;;;16.30;99.90;;;;;;5061292;28;20388;-80
2022/09/05 02:29:25;;;;;;;;;;;16.20;99.90;;;;;;5061563;28;19929;-79
2022/09/05 02:31:55;;;;;;;;;;;16.20;99.90;;;;;;5058330;28;19929;-76
2022/09/05 02:34:24;;;;;;;;;;;16.20;99.90;;;;;;5057434;28;19947;-79
2022/09/05 02:36:53;;;;;;;;;;;16.20;99.90;;;;;;5061673;28;19929;-77
2022/09/05 02:39:21;;;;;;;;;;;16.10;99.90;;;;;;5078451;28;19924;-76
2022/09/05 02:41:53;;;;;;;;;;;16.10;99.90;;;;;;5078027;28;19924;-77
2022/09/05 02:44:24;;;;;;;;;;;16.10;99.90;;;;;;5086925;28;19935;-78
2022/09/05 02:46:53;;;;;;;;;;;16.00;99.90;;;;;;5085753;28;20386;-77
2022/09/05 02:49:25;;;;;;;;;;;16.00;99.90;;;;;;5086144;28;19928;-76
2022/09/05 02:51:56;;;;;;;;;;;16.00;99.90;;;;;;5085718;28;20513;-77
2022/09/05 02:54:26;;;;;;;;;;;16.00;99.90;;;;;;5081494;28;19937;-78
2022/09/05 02:57:04;;;;;;;;;;;16.00;99.90;;;;;;5103577;28;19934;-79
2022/09/05 02:59:42;;;;;;;;;;;16.00;99.90;;;;;;5082666;28;20004;-77
2022/09/05 03:02:14;;;;;;;;;;;16.00;99.90;;;;;;5065279;28;19925;-78
2022/09/05 03:04:43;;;;;;;;;;;15.90;99.90;;;;;;5063576;28;19929;-78
2022/09/05 03:07:23;;;;;;;;;;;15.90;99.90;;;;;;5061275;28;19929;-77
2022/09/05 03:10:08;;;;;;;;;;;15.90;99.90;;;;;;5066487;28;19929;-78
2022/09/05 03:12:56;;;;;;;;;;;15.90;99.90;;;;;;5067947;28;20459;-76
2022/09/05 03:15:40;;;;;;;;;;;15.80;99.90;;;;;;5027953;28;20586;-79
2022/09/05 03:18:27;;;;;;;;;;;15.80;99.90;;;;;;5075359;28;19924;-79
2022/09/05 03:21:28;;;;;;;;;;;15.80;99.90;;;;;;5070229;28;20284;-78
2022/09/05 03:24:10;;;;;;;;;;;15.80;99.90;;;;;;5067646;28;19928;-78
2022/09/05 03:27:01;;;;;;;;;;;15.70;99.90;;;;;;5071788;28;20342;-78
2022/09/05 03:29:47;;;;;;;;;;;15.70;99.90;;;;;;5063278;28;19925;-79
2022/09/05 03:32:30;;;;;;;;;;;15.60;99.90;;;;;;5054238;28;19933;-78
2022/09/05 03:35:18;;;;;;;;;;;15.60;99.90;;;;;;5074495;28;20027;-80
2022/09/05 03:37:59;;;;;;;;;;;15.60;99.90;;;;;;5074671;28;19925;-80
2022/09/05 03:40:47;;;;;;;;;;;15.60;99.90;;;;;;5032552;28;20386;-80
2022/09/05 03:43:31;;;;;;;;;;;15.80;99.90;;;;;;5076327;28;19928;-80
2022/09/05 03:46:11;;;;;;;;;;;16.00;99.90;;;;;;5063508;28;19941;-80
2022/09/05 03:48:52;;;;;;;;;;;15.60;99.90;;;;;;5071444;28;19929;-78
2022/09/05 03:51:24;;;;;;;;;;;15.60;99.90;;;;;;5070701;28;20300;-77
2022/09/05 03:54:10;;;;;;;;;;;15.70;99.90;;;;;;5066564;28;19982;-78
2022/09/05 03:56:58;;;;;;;;;;;15.70;99.90;;;;;;5031401;28;19928;-76
2022/09/05 03:59:54;;;;;;;;;;;15.70;99.90;;;;;;5055634;28;20551;-79
2022/09/05 04:02:22;;;;;;;;;;;15.70;99.90;;;;;;5064059;28;19936;-78
2022/09/05 04:04:53;;;;;;;;;;;15.70;99.90;;;;;;5061142;28;20517;-78
2022/09/05 04:07:21;;;;;;;;;;;15.70;99.90;;;;;;5067728;28;19936;-78
2022/09/05 04:09:52;;;;;;;;;;;15.70;99.90;;;;;;5069644;28;19929;-78
2022/09/05 04:12:20;;;;;;;;;;;15.70;99.90;;;;;;5063013;28;19928;-78
2022/09/05 04:14:49;;;;;;;;;;;15.70;99.90;;;;;;5064090;28;19937;-78
2022/09/05 04:17:25;;;;;;;;;;;15.70;99.90;;;;;;5073255;28;19990;-77
2022/09/05 04:19:55;;;;;;;;;;;15.70;99.90;;;;;;5068029;28;19954;-78
2022/09/05 04:22:25;;;;;;;;;;;15.70;99.90;;;;;;5056604;28;19941;-77
2022/09/05 04:25:00;;;;;;;;;;;15.70;99.90;;;;;;5067935;28;19924;-78
2022/09/05 04:27:30;;;;;;;;;;;15.70;99.90;;;;;;5061847;28;20182;-78
2022/09/05 04:30:01;;;;;;;;;;;15.70;99.90;;;;;;5053442;28;19928;-76
2022/09/05 04:32:36;;;;;;;;;;;15.70;99.90;;;;;;5055331;28;19947;-78
2022/09/05 04:35:07;;;;;;;;;;;15.70;99.90;;;;;;5055264;28;20023;-78
2022/09/05 04:37:40;;;;;;;;;;;15.70;99.90;;;;;;5056467;28;19933;-78
2022/09/05 04:40:25;;;;;;;;;;;15.70;99.90;;;;;;5071109;28;19939;-78
2022/09/05 04:42:52;;;;;;;;;;;15.60;99.90;;;;;;5058054;28;19940;-77
2022/09/05 04:45:20;;;;;;;;;;;15.60;99.90;;;;;;5066013;28;19935;-77
2022/09/05 04:47:51;;;;;;;;;;;15.60;99.90;;;;;;5055377;28;19947;-77
2022/09/05 04:50:20;;;;;;;;;;;15.60;99.90;;;;;;5056716;28;19952;-77
2022/09/05 04:52:55;;;;;;;;;;;15.60;99.90;;;;;;5054316;28;19925;-77
2022/09/05 04:57:58;;;;;;;;;;;15.60;99.90;;;;;;5061686;28;20373;-74
2022/09/05 05:00:33;;;;;;;;;;;15.50;99.90;;;;;;5057371;28;19932;-74
2022/09/05 05:03:03;;;;;;;;;;;15.60;99.90;;;;;;5059690;28;19928;-75
2022/09/05 05:05:50;;;;;;;;;;;15.90;99.90;;;;;;5060694;28;20141;-75
2022/09/05 05:08:19;;;;;;;;;;;15.50;99.90;;;;;;5062887;28;19940;-75
2022/09/05 05:10:48;;;;;;;;;;;15.60;99.90;;;;;;5053249;28;20265;-76
2022/09/05 05:13:17;;;;;;;;;;;15.60;99.90;;;;;;5067507;28;20340;-75
2022/09/05 05:15:47;;;;;;;;;;;15.60;99.90;;;;;;5068994;28;19932;-76
2022/09/05 05:18:20;;;;;;;;;;;15.60;99.90;;;;;;5072376;28;19954;-75
2022/09/05 05:20:53;;;;;;;;;;;15.70;99.90;;;;;;5087668;28;19913;-75
2022/09/05 05:23:28;;;;;;;;;;;15.70;99.90;;;;;;5068610;28;19925;-75
2022/09/05 05:25:57;;;;;;;;;;;15.80;99.90;;;;;;5068379;28;20647;-75
2022/09/05 05:28:26;;;;;;;;;;;15.80;99.90;;;;;;5058265;28;19925;-75
2022/09/05 05:30:53;;;;;;;;;;;15.90;99.90;;;;;;5047917;28;19959;-75
2022/09/05 05:33:25;;;;;;;;;;;15.90;99.90;;;;;;5048665;28;20002;-75
2022/09/05 05:35:52;;;;;;;;;;;16.20;99.90;;;;;;5047914;28;20412;-75
2022/09/05 05:38:25;;;;;;;;;;;16.20;99.90;;;;;;5062732;28;20431;-75
2022/09/05 05:40:54;;;;;;;;;;;16.90;99.90;;;;;;5041287;28;19933;-75
2022/09/05 05:43:22;;;;;;;;;;;17.80;99.90;;;;;;5029709;28;19925;-74
2022/09/05 05:45:55;;;;;;;;;;;19.60;99.90;;;;;;5047998;28;20041;-74
2022/09/05 05:48:29;;;;;;;;;;;19.50;99.90;;;;;;5029725;28;19933;-74
2022/09/05 05:51:02;;;;;;;;;;;20.60;99.90;;;;;;5052634;28;19959;-75
2022/09/05 05:53:32;;;;;;;;;;;21.70;99.90;;;;;;5052123;28;19928;-75
2022/09/05 05:56:15;;;;;;;;;;;22.90;99.90;;;;;;5064085;28;20101;-75
2022/09/05 05:58:57;;;;;;;;;;;23.00;99.90;;;;;;5055376;28;19932;-75
2022/09/05 06:01:37;;;;;;;;;;;24.00;99.90;;;;;;5047349;28;20003;-75
2022/09/05 06:04:21;;;;;;;;;;;25.00;99.90;;;;;;5066951;28;19928;-75
2022/09/05 06:07:03;;;;;;;;;;;25.90;99.90;;;;;;5069660;28;19935;-76
2022/09/05 06:09:48;;;;;;;;;;;26.80;99.90;;;;;;5063232;28;19928;-76
2022/09/05 06:12:30;;;;;;;;;;;27.60;99.90;;;;;;5062037;28;20384;-75
2022/09/05 06:15:12;;;;;;;;;;;28.30;99.90;;;;;;5071056;28;19924;-75
2022/09/05 06:18:02;;;;;;;;;;;28.80;99.90;;;;;;5055522;28;19934;-75
2022/09/05 06:20:39;;;;;;;;;;;29.10;99.90;;;;;;5055692;28;19925;-74
2022/09/05 06:23:29;;;;;;;;;;;29.50;99.90;;;;;;5074349;28;19935;-75
2022/09/05 06:26:11;;;;;;;;;;;29.90;99.90;;;;;;5073546;28;19928;-75
2022/09/05 06:28:46;;;;;;;;;;;29.70;99.90;;;;;;5056034;28;20375;-76
2022/09/05 06:31:24;;;;;;;;;;;29.90;99.90;;;;;;5034871;28;19925;-76
2022/09/05 06:33:58;;;;;;;;;;;30.20;99.90;;;;;;5064434;28;19931;-76
2022/09/05 06:36:37;;;;;;;;;;;31.20;99.90;;;;;;5073937;28;19925;-76
2022/09/05 06:39:09;;;;;;;;;;;31.40;99.90;;;;;;5055082;28;19924;-77
2022/09/05 06:41:41;;;;;;;;;;;32.10;99.90;;;;;;5059240;28;19929;-77
2022/09/05 06:44:23;;;;;;;;;;;32.80;99.90;;;;;;5060241;28;19928;-76
2022/09/05 06:46:52;;;;;;;;;;;33.50;99.90;;;;;;5055579;28;20281;-76
2022/09/05 06:49:22;;;;;;;;;;;33.80;99.90;;;;;;5074580;28;20316;-77
2022/09/05 06:52:03;;;;;;;;;;;34.00;99.90;;;;;;5053496;28;20328;-77
2022/09/05 06:54:53;;;;;;;;;;;34.20;99.90;;;;;;5013715;28;19928;-76
2022/09/05 06:57:39;;;;;;;;;;;34.60;99.90;;;;;;5049349;28;20397;-77
2022/09/05 07:00:11;;;;;;;;;;;34.90;99.90;;;;;;5055265;28;19933;-76
2022/09/05 07:02:40;;;;;;;;;;;35.00;99.90;;;;;;5067001;28;19929;-77
2022/09/05 07:05:12;;;;;;;;;;;35.10;98.60;;;;;;5070231;28;20400;-76
2022/09/05 07:07:43;;;;;;;;;;;35.30;97.20;;;;;;5072573;28;19982;-76
2022/09/05 07:10:13;;;;;;;;;;;35.20;96.30;;;;;;5047650;28;20459;-76
2022/09/05 07:12:44;;;;;;;;;;;35.40;95.20;;;;;;5059250;28;20034;-76
2022/09/05 07:15:14;;;;;;;;;;;35.50;93.30;;;;;;5053444;28;19929;-76
2022/09/05 07:17:47;;;;;;;;;;;35.60;94.50;;;;;;5053104;28;19929;-77
2022/09/05 07:20:20;;;;;;;;;;;35.60;92.30;;;;;;5052272;28;20015;-76
2022/09/05 07:22:52;;;;;;;;;;;35.60;91.00;;;;;;5053035;28;20394;-76
2022/09/05 07:25:21;;;;;;;;;;;35.50;90.00;;;;;;5053688;28;19928;-76
2022/09/05 07:27:50;;;;;;;;;;;35.30;89.70;;;;;;5051945;28;20301;-76
2022/09/05 07:30:19;;;;;;;;;;;35.30;87.00;;;;;;5056733;28;19932;-76
2022/09/05 07:32:48;;;;;;;;;;;35.30;86.90;;;;;;5051489;28;19932;-76
2022/09/05 07:35:17;;;;;;;;;;;35.20;86.50;;;;;;5052173;28;19935;-77
2022/09/05 07:37:45;;;;;;;;;;;35.30;84.70;;;;;;5080343;28;19928;-76
2022/09/05 07:40:16;;;;;;;;;;;35.10;84.80;;;;;;5053224;28;19925;-76
2022/09/05 07:42:44;;;;;;;;;;;35.10;82.50;;;;;;5052156;28;19932;-76
2022/09/05 07:45:12;;;;;;;;;;;35.00;82.50;;;;;;5052893;28;19932;-76
2022/09/05 07:47:43;;;;;;;;;;;34.90;81.80;;;;;;5050134;28;19935;-76
2022/09/05 07:50:12;;;;;;;;;;;34.60;81.20;;;;;;5055563;28;20526;-77
2022/09/05 07:52:41;;;;;;;;;;;34.90;80.40;;;;;;5056401;28;19932;-77
2022/09/05 07:55:13;;;;;;;;;;;34.90;80.30;;;;;;5042084;28;19928;-77
2022/09/05 07:57:42;;;;;;;;;;;35.10;82.10;;;;;;5049341;28;20398;-77
2022/09/05 08:00:11;;;;;;;;;;;35.10;80.00;;;;;;5053131;28;20389;-76
2022/09/05 08:02:44;;;;;;;;;;;35.30;79.30;;;;;;5048887;28;19929;-77
2022/09/05 08:05:14;;;;;;;;;;;35.30;77.50;;;;;;5051026;28;20374;-77
2022/09/05 08:07:43;;;;;;;;;;;35.20;77.10;;;;;;5054064;28;19935;-76
2022/09/05 08:10:11;;;;;;;;;;;35.10;77.00;;;;;;5052664;28;19929;-77
2022/09/05 08:12:39;;;;;;;;;;;35.00;76.10;;;;;;5060314;28;19929;-77
2022/09/05 08:15:11;;;;;;;;;;;35.00;76.00;;;;;;5056303;28;19928;-77
2022/09/05 08:17:42;;;;;;;;;;;35.10;76.30;;;;;;5057224;28;19978;-77
2022/09/05 08:20:21;;;;;;;;;;;35.00;75.40;;;;;;5057596;28;19924;-77
2022/09/05 08:22:49;;;;;;;;;;;34.90;73.00;;;;;;5049435;28;19998;-76
2022/09/05 08:25:18;;;;;;;;;;;34.70;74.40;;;;;;5050764;28;20027;-77
2022/09/05 08:27:53;;;;;;;;;;;34.80;73.30;;;;;;5069390;28;20027;-76
2022/09/05 08:30:20;;;;;;;;;;;34.70;73.10;;;;;;5064835;28;19935;-76
2022/09/05 08:32:49;;;;;;;;;;;34.50;72.20;;;;;;5051617;28;19925;-76
2022/09/05 08:35:22;;;;;;;;;;;34.40;72.40;;;;;;5054264;28;19935;-76
2022/09/05 08:37:49;;;;;;;;;;;34.30;72.50;;;;;;5049669;28;19972;-76
2022/09/05 08:40:19;;;;;;;;;;;34.30;72.20;;;;;;5051511;28;20029;-75
2022/09/05 08:42:48;;;;;;;;;;;34.30;72.80;;;;;;5048564;28;20384;-76
2022/09/05 08:45:18;;;;;;;;;;;34.20;73.40;;;;;;5066926;28;20405;-76
2022/09/05 08:47:51;;;;;;;;;;;34.30;73.30;;;;;;5053345;28;19929;-77
2022/09/05 08:50:25;;;;;;;;;;;34.30;73.00;;;;;;5068043;28;20073;-76
2022/09/05 08:52:55;;;;;;;;;;;34.40;72.70;;;;;;5054081;28;20332;-76
2022/09/05 08:55:26;;;;;;;;;;;34.50;71.90;;;;;;5049491;28;19959;-76
2022/09/05 08:57:58;;;;;;;;;;;34.40;71.10;;;;;;5055875;28;19928;-76
2022/09/05 09:00:28;;;;;;;;;;;34.30;71.10;;;;;;5053557;28;19929;-75
2022/09/05 09:03:17;;;;;;;;;;;34.20;71.40;;;;;;5056334;28;20289;-76
2022/09/05 09:06:12;;;;;;;;;;;33.90;70.20;;;;;;5055647;28;20320;-75
2022/09/05 09:08:47;;;;;;;;;;;33.60;70.50;;;;;;5056062;28;19974;-75
2022/09/05 09:11:22;;;;;;;;;;;33.30;71.40;;;;;;5051180;28;19936;-76
2022/09/05 09:13:53;;;;;;;;;;;33.20;71.70;;;;;;5060155;28;20397;-76
2022/09/05 09:16:28;;;;;;;;;;;33.00;71.30;;;;;;5050910;28;19925;-76
2022/09/05 09:19:03;;;;;;;;;;;33.00;71.00;;;;;;5050485;28;20042;-76
2022/09/05 09:21:34;;;;;;;;;;;32.90;71.40;;;;;;5050944;28;19929;-76
2022/09/05 09:24:06;;;;;;;;;;;32.80;71.10;;;;;;5069424;28;19998;-75
2022/09/05 09:26:35;;;;;;;;;;;32.70;71.10;;;;;;5068029;28;19962;-75
2022/09/05 09:29:05;;;;;;;;;;;32.70;70.80;;;;;;5074581;28;19932;-75
2022/09/05 09:31:37;;;;;;;;;;;32.50;70.70;;;;;;5089257;28;20011;-75
2022/09/05 09:34:15;;;;;;;;;;;32.30;70.90;;;;;;5085610;28;19928;-75
2022/09/05 09:37:02;;;;;;;;;;;31.70;71.10;;;;;;5063988;28;19955;-75
2022/09/05 09:39:36;;;;;;;;;;;31.60;72.00;;;;;;5030438;28;20520;-75
2022/09/05 09:42:17;;;;;;;;;;;31.10;72.20;;;;;;5059412;28;19932;-75
2022/09/05 09:45:02;;;;;;;;;;;30.80;72.70;;;;;;5049463;28;20386;-75
2022/09/05 09:47:35;;;;;;;;;;;30.40;72.50;;;;;;5048936;28;19928;-75
2022/09/05 09:50:10;;;;;;;;;;;30.20;73.00;;;;;;5049234;28;20016;-75
2022/09/05 09:52:55;;;;;;;;;;;30.00;73.70;;;;;;5031044;28;20341;-75
2022/09/05 09:55:39;;;;;;;;;;;30.00;73.60;;;;;;5052179;28;20276;-75
2022/09/05 09:58:15;;;;;;;;;;;29.80;72.70;;;;;;5038854;28;19976;-75
2022/09/05 10:00:50;;;;;;;;;;;29.80;73.50;;;;;;5047103;28;19929;-75
2022/09/05 10:03:34;;;;;;;;;;;29.80;73.80;;;;;;5047460;28;19940;-75
2022/09/05 10:06:16;;;;;;;;;;;29.50;73.50;;;;;;5059606;28;20360;-75
2022/09/05 10:08:49;;;;;;;;;;;29.60;74.00;;;;;;5069125;28;20389;-75
2022/09/05 10:11:25;;;;;;;;;;;29.50;74.20;;;;;;5055769;28;19929;-75
2022/09/05 10:14:06;;;;;;;;;;;29.50;74.40;;;;;;5060948;28;20628;-75
2022/09/05 10:16:54;;;;;;;;;;;29.50;74.10;;;;;;5051160;28;19928;-74
2022/09/05 10:19:37;;;;;;;;;;;29.50;73.80;;;;;;5048722;28;19970;-74
2022/09/05 10:22:15;;;;;;;;;;;29.50;73.40;;;;;;5049576;28;19990;-74
2022/09/05 10:24:55;;;;;;;;;;;29.50;72.60;;;;;;5047278;28;19936;-74
2022/09/05 10:27:29;;;;;;;;;;;29.60;72.10;;;;;;5556346;22;20371;-74
2022/09/05 10:30:10;;;;;;;;;;;29.60;71.70;;;;;;5011302;28;19984;-75
2022/09/05 10:32:51;;;;;;;;;;;29.70;71.40;;;;;;5004928;28;20311;-74
2022/09/05 10:35:21;;;;;;;;;;;29.80;71.70;;;;;;5007537;28;20287;-74
2022/09/05 10:37:51;;;;;;;;;;;29.90;70.80;;;;;;5010182;28;19929;-74
2022/09/05 10:40:21;;;;;;;;;;;29.90;70.70;;;;;;5024716;28;19960;-74
2022/09/05 10:42:51;;;;;;;;;;;29.90;70.60;;;;;;5016450;28;19968;-74
2022/09/05 10:45:21;;;;;;;;;;;29.90;70.30;;;;;;5017683;28;19929;-75
2022/09/05 10:47:52;;;;;;;;;;;29.90;70.60;;;;;;5012942;28;19933;-74
2022/09/05 10:50:24;;;;;;;;;;;30.00;70.70;;;;;;5016638;28;19933;-75
2022/09/05 10:52:59;;;;;;;;;;;30.00;70.60;;;;;;5007970;28;19926;-74
2022/09/05 10:55:30;;;;;;;;;;;30.20;70.60;;;;;;4995795;28;19929;-74
2022/09/05 10:58:03;;;;;;;;;;;30.30;68.80;;;;;;5033409;28;19929;-74
2022/09/05 11:00:37;;;;;;;;;;;30.20;69.00;;;;;;5034481;28;20032;-74
2022/09/05 11:03:04;;;;;;;;;;;30.20;69.20;;;;;;5014738;28;19936;-74
2022/09/05 11:05:36;;;;;;;;;;;30.20;69.80;;;;;;5031803;28;19936;-74
2022/09/05 11:08:06;;;;;;;;;;;30.40;68.30;;;;;;5029205;28;19929;-74
2022/09/05 11:10:34;;;;;;;;;;;30.50;68.40;;;;;;5023584;28;20545;-74
2022/09/05 11:13:11;;;;;;;;;;;30.70;68.20;;;;;;5015012;28;20375;-74
2022/09/05 11:15:49;;;;;;;;;;;30.80;68.60;;;;;;5031294;28;19932;-75
2022/09/05 11:18:19;;;;;;;;;;;30.90;67.10;;;;;;5029789;28;20429;-76
2022/09/05 11:20:48;;;;;;;;;;;31.00;67.20;;;;;;5024429;28;19932;-75
2022/09/05 11:23:18;;;;;;;;;;;31.10;66.80;;;;;;5032768;28;19937;-75
2022/09/05 11:25:46;;;;;;;;;;;31.10;66.30;;;;;;5020646;28;20023;-75
2022/09/05 11:28:17;;;;;;;;;;;31.00;65.60;;;;;;5023073;28;20021;-75
2022/09/05 11:30:46;;;;;;;;;;;30.90;66.60;;;;;;5019464;28;20338;-75
2022/09/05 11:33:25;;;;;;;;;;;30.90;65.70;;;;;;5007020;28;19940;-76
2022/09/05 11:35:53;;;;;;;;;;;31.20;65.60;;;;;;5031621;28;19929;-76
2022/09/05 11:38:38;;;;;;;;;;;31.20;66.00;;;;;;5024930;28;19932;-76
2022/09/05 11:41:22;;;;;;;;;;;31.20;65.10;;;;;;5023141;28;19937;-76
2022/09/05 11:44:03;;;;;;;;;;;31.60;65.90;;;;;;5023083;28;19933;-76
2022/09/05 11:46:32;;;;;;;;;;;31.30;65.50;;;;;;5026712;28;20027;-76
2022/09/05 11:49:22;;;;;;;;;;;31.30;65.20;;;;;;5023692;28;19937;-75
2022/09/05 11:52:16;;;;;;;;;;;31.40;65.20;;;;;;5024461;28;19928;-76
2022/09/05 11:54:56;;;;;;;;;;;31.60;65.40;;;;;;5021739;28;19937;-75
2022/09/05 11:57:31;;;;;;;;;;;31.60;63.90;;;;;;5030364;28;20605;-76
2022/09/05 12:00:13;;;;;;;;;;;31.70;64.00;;;;;;5019072;28;19929;-76
2022/09/05 12:03:04;;;;;;;;;;;31.80;64.80;;;;;;5025089;28;20324;-76
2022/09/05 12:05:50;;;;;;;;;;;32.00;64.10;;;;;;4990455;28;19941;-75
2022/09/05 12:08:24;;;;;;;;;;;32.20;64.00;;;;;;5023457;28;19933;-76
2022/09/05 12:10:58;;;;;;;;;;;32.40;62.60;;;;;;5031773;28;19972;-76
2022/09/05 12:13:30;;;;;;;;;;;32.40;62.80;;;;;;5027877;28;19929;-75
2022/09/05 12:15:58;;;;;;;;;;;32.50;61.40;;;;;;5034181;28;19932;-76
2022/09/05 12:18:30;;;;;;;;;;;32.50;61.70;;;;;;5028976;28;19936;-75
2022/09/05 12:21:03;;;;;;;;;;;32.50;61.90;;;;;;5034915;28;19933;-76
2022/09/05 12:23:32;;;;;;;;;;;32.80;61.10;;;;;;5015909;28;19929;-76
2022/09/05 12:26:01;;;;;;;;;;;32.70;61.60;;;;;;4996334;28;20016;-75
2022/09/05 12:28:32;;;;;;;;;;;32.70;61.30;;;;;;5013469;28;19999;-76
2022/09/05 12:31:09;;;;;;;;;;;32.80;60.70;;;;;;5033427;28;20066;-76
2022/09/05 12:33:36;;;;;;;;;;;33.00;60.60;;;;;;5025420;28;20510;-75
2022/09/05 12:36:11;;;;;;;;;;;33.20;60.30;;;;;;5033562;28;19925;-76
2022/09/05 12:38:41;;;;;;;;;;;33.20;59.70;;;;;;5033213;28;19936;-76
2022/09/05 12:41:10;;;;;;;;;;;33.30;59.30;;;;;;5024727;28;19929;-76
2022/09/05 12:43:39;;;;;;;;;;;33.30;58.90;;;;;;5018599;28;19926;-75
2022/09/05 12:46:11;;;;;;;;;;;33.50;59.20;;;;;;5021647;28;19937;-75
2022/09/05 12:48:39;;;;;;;;;;;33.50;59.00;;;;;;5013925;28;19968;-75
2022/09/05 12:51:09;;;;;;;;;;;33.60;59.40;;;;;;5030675;28;20481;-75
2022/09/05 12:53:42;;;;;;;;;;;33.60;57.30;;;;;;5025979;28;19991;-74
2022/09/05 12:56:11;;;;;;;;;;;33.50;57.90;;;;;;5024338;28;19925;-75
2022/09/05 12:58:40;;;;;;;;;;;33.50;57.10;;;;;;5022462;28;20402;-75
2022/09/05 13:01:19;;;;;;;;;;;33.50;57.10;;;;;;5023003;28;19936;-75
2022/09/05 13:03:50;;;;;;;;;;;33.60;57.70;;;;;;5028403;28;20392;-74
2022/09/05 13:06:22;;;;;;;;;;;33.70;57.70;;;;;;5023312;28;19940;-74
2022/09/05 13:08:50;;;;;;;;;;;33.70;57.00;;;;;;5020825;28;19992;-77
2022/09/05 13:11:20;;;;;;;;;;;33.80;55.70;;;;;;5018341;28;20322;-75
2022/09/05 13:13:49;;;;;;;;;;;33.90;55.70;;;;;;5024202;28;19952;-76
2022/09/05 13:16:18;;;;;;;;;;;33.80;56.40;;;;;;5023882;28;20001;-75
2022/09/05 13:18:45;;;;;;;;;;;33.80;55.80;;;;;;5015729;28;19930;-76
2022/09/05 13:21:16;;;;;;;;;;;33.60;54.90;;;;;;5028658;28;19942;-74
2022/09/05 13:23:46;;;;;;;;;;;33.50;56.10;;;;;;5021982;28;20725;-76
2022/09/05 13:26:16;;;;;;;;;;;33.40;56.10;;;;;;5020913;28;19929;-75
2022/09/05 13:28:49;;;;;;;;;;;33.40;55.60;;;;;;5026475;28;19939;-75
2022/09/05 13:31:36;;;;;;;;;;;33.30;56.70;;;;;;5028149;28;19933;-76
2022/09/05 13:34:07;;;;;;;;;;;33.30;56.80;;;;;;5026824;28;19933;-76
2022/09/05 13:36:36;;;;;;;;;;;33.20;56.90;;;;;;5011503;28;19979;-76
2022/09/05 13:39:05;;;;;;;;;;;33.30;57.10;;;;;;5029093;28;19943;-76
2022/09/05 13:41:34;;;;;;;;;;;33.30;56.80;;;;;;5031774;28;20023;-75
2022/09/05 13:44:06;;;;;;;;;;;33.90;57.00;;;;;;5022927;28;19925;-75
2022/09/05 13:46:37;;;;;;;;;;;32.50;56.70;;;;;;5022593;28;19933;-75
2022/09/05 13:49:09;;;;;;;;;;;32.50;56.90;;;;;;5011231;28;20051;-76
2022/09/05 13:51:37;;;;;;;;;;;32.50;57.00;;;;;;5015633;28;19933;-75
2022/09/05 13:54:18;;;;;;;;;;;32.60;56.90;;;;;;5022727;28;20006;-74
2022/09/05 13:56:49;;;;;;;;;;;32.80;57.30;;;;;;5022695;28;19929;-74
2022/09/05 13:59:18;;;;;;;;;;;32.80;56.80;;;;;;5023962;28;19944;-75
2022/09/05 14:01:52;;;;;;;;;;;33.10;56.60;;;;;;5027076;28;20456;-74
2022/09/05 14:04:37;;;;;;;;;;;33.20;56.30;;;;;;5030777;28;19925;-74
2022/09/05 14:07:10;;;;;;;;;;;33.10;56.40;;;;;;5033047;28;19929;-74
2022/09/05 14:09:49;;;;;;;;;;;33.20;56.50;;;;;;5038729;28;19925;-73
2022/09/05 14:12:26;;;;;;;;;;;33.50;56.20;;;;;;5031480;28;22260;-76
2022/09/05 14:14:54;;;;;;;;;;;33.60;56.70;;;;;;5023729;28;19929;-76
2022/09/05 14:17:29;;;;;;;;;;;33.60;56.00;;;;;;5016804;28;19925;-76
2022/09/05 14:22:44;;;;;;;;;;;33.40;55.50;;;;;;5008094;28;19936;-76
2022/09/05 14:25:15;;;;;;;;;;;33.20;55.50;;;;;;5007286;28;19929;-76
2022/09/05 14:27:44;;;;;;;;;;;32.80;55.20;;;;;;5014142;28;19929;-76
2022/09/05 14:30:26;;;;;;;;;;;32.50;56.00;;;;;;5022312;28;19926;-76
2022/09/05 14:33:02;;;;;;;;;;;32.20;56.40;;;;;;5021959;28;19965;-75
2022/09/05 14:35:31;;;;;;;;;;;31.90;56.70;;;;;;5032236;28;19937;-75
2022/09/05 14:38:02;;;;;;;;;;;31.70;56.40;;;;;;5015701;28;19966;-76
2022/09/05 14:40:46;;;;;;;;;;;31.50;57.00;;;;;;5028656;28;19933;-76
2022/09/05 14:43:23;;;;;;;;;;;31.30;57.10;;;;;;5025999;28;19929;-76
2022/09/05 14:46:01;;;;;;;;;;;31.10;56.80;;;;;;5026429;28;20028;-75
2022/09/05 14:48:52;;;;;;;;;;;31.10;57.30;;;;;;5027354;28;19929;-76
2022/09/05 14:51:28;;;;;;;;;;;31.00;57.60;;;;;;5018588;28;19925;-76
2022/09/05 14:53:58;;;;;;;;;;;31.10;57.90;;;;;;5033875;28;19936;-75
2022/09/05 14:56:29;;;;;;;;;;;31.20;57.30;;;;;;5022565;28;19929;-76
2022/09/05 14:59:09;;;;;;;;;;;31.20;57.30;;;;;;5023145;28;19939;-76
2022/09/05 15:01:54;;;;;;;;;;;31.40;57.30;;;;;;5022028;28;19933;-76